createdAt,value
2022-08-28T00:00:14.328Z,10.70
2022-08-28T00:02:41.447Z,10.70
2022-08-28T00:05:11.132Z,9.95
2022-08-28T00:07:37.978Z,10.43
2022-08-28T00:10:07.146Z,10.65
2022-08-28T00:12:35.510Z,10.32
2022-08-28T00:15:08.189Z,10.82
2022-08-28T00:17:38.640Z,9.77
2022-08-28T00:20:07.072Z,10.95
2022-08-28T00:22:34.052Z,9.70
2022-08-28T00:25:00.663Z,9.48
2022-08-28T00:27:45.942Z,9.95
2022-08-28T00:30:12.774Z,9.63
2022-08-28T00:32:39.392Z,9.30
2022-08-28T00:35:07.485Z,9.77
2022-08-28T00:37:35.033Z,9.60
2022-08-28T00:40:02.531Z,9.65
2022-08-28T00:42:34.013Z,10.20
2022-08-28T00:45:01.155Z,9.68
2022-08-28T00:47:28.430Z,9.75
2022-08-28T00:49:56.724Z,9.80
2022-08-28T00:52:26.825Z,9.68
2022-08-28T00:55:01.632Z,8.90
2022-08-28T00:57:36.273Z,8.60
2022-08-28T01:00:11.327Z,10.00
2022-08-28T01:02:38.258Z,10.35
2022-08-28T01:05:09.567Z,9.55
2022-08-28T01:07:37.557Z,9.98
2022-08-28T01:10:07.682Z,9.90
2022-08-28T01:12:35.755Z,10.27
2022-08-28T01:15:10.620Z,10.18
2022-08-28T01:17:43.191Z,10.50
2022-08-28T01:20:14.917Z,9.27
2022-08-28T01:23:02.932Z,9.82
2022-08-28T01:25:33.890Z,9.40
2022-08-28T01:28:04.987Z,9.75
2022-08-28T01:30:32.500Z,10.07
2022-08-28T01:32:59.150Z,9.07
2022-08-28T01:35:31.615Z,9.20
2022-08-28T01:37:58.767Z,9.63
2022-08-28T01:40:31.443Z,9.15
2022-08-28T01:43:11.882Z,9.23
2022-08-28T01:45:40.320Z,10.05
2022-08-28T01:48:08.436Z,9.50
2022-08-28T01:50:35.867Z,9.05
2022-08-28T01:55:35.770Z,9.70
2022-08-28T01:58:06.605Z,10.00
2022-08-28T02:00:33.765Z,9.18
2022-08-28T02:03:00.931Z,9.95
2022-08-28T02:05:31.148Z,9.93
2022-08-28T02:07:58.884Z,9.68
2022-08-28T02:10:27.966Z,9.75
2022-08-28T02:12:56.087Z,9.27
2022-08-28T02:15:27.369Z,9.18
2022-08-28T02:17:55.105Z,9.25
2022-08-28T02:20:22.461Z,9.80
2022-08-28T02:25:16.810Z,9.10
2022-08-28T02:27:44.300Z,9.45
2022-08-28T02:30:13.085Z,8.93
2022-08-28T02:32:40.087Z,9.75
2022-08-28T02:35:12.038Z,9.32
2022-08-28T02:37:39.764Z,9.68
2022-08-28T02:40:07.300Z,10.27
2022-08-28T02:42:34.034Z,9.48
2022-08-28T02:45:00.977Z,10.02
2022-08-28T02:47:27.635Z,8.98
2022-08-28T02:49:54.217Z,9.38
2022-08-28T02:52:21.885Z,9.43
2022-08-28T02:54:48.592Z,9.32
2022-08-28T02:57:15.313Z,9.68
2022-08-28T02:59:43.436Z,9.18
2022-08-28T03:02:10.435Z,9.05
2022-08-28T03:04:37.878Z,8.68
2022-08-28T03:07:07.408Z,9.35
2022-08-28T03:09:34.113Z,8.50
2022-08-28T03:12:00.805Z,8.77
2022-08-28T03:14:27.872Z,9.27
2022-08-28T03:16:54.657Z,8.63
2022-08-28T03:19:22.267Z,9.32
2022-08-28T03:21:48.890Z,8.38
2022-08-28T03:24:19.109Z,9.20
2022-08-28T03:26:46.270Z,9.60
2022-08-28T03:29:13.052Z,9.48
2022-08-28T03:31:39.677Z,8.95
2022-08-28T03:34:06.902Z,9.70
2022-08-28T03:36:33.930Z,9.90
2022-08-28T03:39:03.597Z,8.85
2022-08-28T03:41:31.487Z,8.95
2022-08-28T03:44:00.643Z,9.45
2022-08-28T03:46:29.630Z,8.98
2022-08-28T03:48:56.229Z,9.55
2022-08-28T03:51:31.049Z,9.43
2022-08-28T03:53:59.112Z,9.25
2022-08-28T03:56:28.390Z,8.77
2022-08-28T03:58:58.105Z,8.73
2022-08-28T04:01:25.856Z,9.30
2022-08-28T04:03:52.809Z,9.60
2022-08-28T04:06:19.890Z,9.35
2022-08-28T04:08:47.265Z,9.75
2022-08-28T04:13:41.759Z,10.10
2022-08-28T04:16:11.601Z,9.85
2022-08-28T04:18:40.252Z,10.82
2022-08-28T04:21:10.001Z,10.75
2022-08-28T04:23:38.645Z,10.60
2022-08-28T04:26:07.451Z,10.23
2022-08-28T04:28:34.373Z,10.68
2022-08-28T04:31:01.209Z,10.45
2022-08-28T04:33:29.579Z,10.30
2022-08-28T04:35:56.965Z,10.65
2022-08-28T04:40:50.079Z,10.43
2022-08-28T04:43:16.643Z,9.07
2022-08-28T04:45:45.179Z,10.20
2022-08-28T04:48:13.702Z,10.60
2022-08-28T04:50:45.678Z,10.60
2022-08-28T04:53:13.993Z,10.13
2022-08-28T04:55:53.826Z,10.65
2022-08-28T04:58:24.083Z,10.73
2022-08-28T05:00:52.541Z,10.48
2022-08-28T05:03:19.412Z,10.40
2022-08-28T05:05:51.969Z,10.68
2022-08-28T05:08:21.345Z,9.73
2022-08-28T05:10:49.204Z,11.05
2022-08-28T05:13:16.539Z,12.32
2022-08-28T05:18:14.187Z,11.50
2022-08-28T05:20:44.663Z,11.65
2022-08-28T05:23:12.518Z,11.85
2022-08-28T05:25:42.964Z,10.73
2022-08-28T05:28:12.149Z,11.05
2022-08-28T05:30:40.886Z,11.20
2022-08-28T05:33:08.940Z,10.82
2022-08-28T05:35:38.444Z,11.00
2022-08-28T05:38:06.638Z,10.07
2022-08-28T05:40:33.844Z,11.32
2022-08-28T05:43:00.679Z,11.13
2022-08-28T05:45:27.298Z,10.45
2022-08-28T05:47:54.148Z,10.15
2022-08-28T05:50:20.924Z,10.18
2022-08-28T05:52:47.622Z,9.70
2022-08-28T05:55:14.482Z,9.88
2022-08-28T05:57:41.847Z,9.18
2022-08-28T06:02:42.038Z,10.18
2022-08-28T06:05:09.637Z,10.63
2022-08-28T06:07:41.111Z,9.85
2022-08-28T06:10:10.582Z,10.40
2022-08-28T06:12:37.434Z,9.90
2022-08-28T06:15:04.354Z,9.70
2022-08-28T06:17:31.162Z,9.23
2022-08-28T06:19:57.820Z,9.00
2022-08-28T06:22:24.451Z,8.57
2022-08-28T06:24:51.030Z,8.95
2022-08-28T06:27:17.848Z,8.93
2022-08-28T06:29:44.782Z,8.43
2022-08-28T06:32:11.503Z,8.27
2022-08-28T06:34:38.202Z,8.27
2022-08-28T06:37:05.075Z,8.57
2022-08-28T06:39:31.708Z,7.70
2022-08-28T06:41:58.350Z,7.97
2022-08-28T06:44:25.027Z,7.30
2022-08-28T06:46:54.140Z,7.95
2022-08-28T06:49:21.519Z,7.60
2022-08-28T06:51:48.750Z,7.82
2022-08-28T06:56:50.899Z,7.40
2022-08-28T06:59:17.521Z,7.55
2022-08-28T07:01:44.259Z,7.50
2022-08-28T07:04:13.753Z,7.15
2022-08-28T07:06:46.728Z,7.95
2022-08-28T07:09:14.363Z,7.65
2022-08-28T07:11:43.700Z,6.90
2022-08-28T07:14:10.662Z,6.72
2022-08-28T07:16:38.931Z,7.20
2022-08-28T07:19:11.206Z,7.70
2022-08-28T07:21:41.776Z,7.22
2022-08-28T07:24:10.591Z,7.13
2022-08-28T07:26:40.855Z,6.97
2022-08-28T07:29:11.564Z,7.38
2022-08-28T07:31:44.064Z,7.50
2022-08-28T07:34:12.582Z,7.70
2022-08-28T07:36:40.737Z,7.47
2022-08-28T07:39:08.416Z,8.23
2022-08-28T07:41:39.294Z,7.57
2022-08-28T07:44:26.094Z,7.22
2022-08-28T07:46:54.950Z,7.10
2022-08-28T07:49:22.892Z,8.20
2022-08-28T07:51:50.060Z,7.22
2022-08-28T07:54:21.818Z,7.47
2022-08-28T07:56:48.441Z,7.30
2022-08-28T07:59:17.460Z,7.25
2022-08-28T08:01:48.136Z,7.80
2022-08-28T08:04:16.449Z,7.32
2022-08-28T08:06:44.538Z,8.38
2022-08-28T08:09:14.352Z,7.97
2022-08-28T08:11:41.473Z,7.85
2022-08-28T08:14:08.815Z,8.25
2022-08-28T08:19:09.819Z,8.75
2022-08-28T08:21:37.775Z,8.95
2022-08-28T08:24:04.973Z,9.50
2022-08-28T08:26:32.549Z,8.48
2022-08-28T08:29:00.229Z,8.00
2022-08-28T08:31:32.551Z,7.32
2022-08-28T08:34:03.635Z,7.95
2022-08-28T08:36:32.304Z,8.07
2022-08-28T08:39:00.683Z,8.07
2022-08-28T08:41:43.654Z,9.00
2022-08-28T08:44:41.275Z,8.38
2022-08-28T08:47:33.454Z,8.25
2022-08-28T08:50:05.943Z,8.30
2022-08-28T08:53:14.406Z,8.10
2022-08-28T08:55:52.159Z,7.78
2022-08-28T08:58:40.816Z,7.80
2022-08-28T09:01:31.446Z,7.53
2022-08-28T09:04:00.887Z,7.13
2022-08-28T09:06:36.702Z,7.18
2022-08-28T09:09:11.573Z,7.20
2022-08-28T09:11:46.609Z,7.00
2022-08-28T09:14:22.008Z,7.10
2022-08-28T09:16:55.697Z,7.28
2022-08-28T09:19:22.586Z,6.97
2022-08-28T09:24:28.402Z,7.20
2022-08-28T09:27:01.851Z,6.72
2022-08-28T09:29:35.414Z,6.88
2022-08-28T09:32:23.467Z,6.68
2022-08-28T09:35:11.421Z,6.70
2022-08-28T09:37:39.158Z,6.85
2022-08-28T09:40:21.057Z,6.78
2022-08-28T09:43:27.572Z,6.35
2022-08-28T09:46:05.429Z,7.00
2022-08-28T09:48:38.590Z,7.13
2022-08-28T09:51:22.181Z,7.50
2022-08-28T09:54:02.416Z,7.32
2022-08-28T09:56:39.977Z,7.43
2022-08-28T09:59:13.516Z,6.47
2022-08-28T10:02:11.571Z,6.90
2022-08-28T10:04:46.048Z,7.35
2022-08-28T10:07:26.338Z,7.50
2022-08-28T10:10:27.379Z,7.60
2022-08-28T10:12:59.549Z,7.10
2022-08-28T10:15:42.963Z,6.65
2022-08-28T10:18:19.207Z,6.75
2022-08-28T10:21:05.289Z,7.60
2022-08-28T10:23:46.961Z,6.72
2022-08-28T10:26:16.346Z,6.57
2022-08-28T10:29:02.400Z,6.57
2022-08-28T10:31:43.043Z,6.20
2022-08-28T10:34:22.114Z,8.25
2022-08-28T10:37:04.302Z,7.18
2022-08-28T10:39:49.423Z,6.90
2022-08-28T10:42:26.677Z,8.48
2022-08-28T10:45:12.926Z,8.65
2022-08-28T10:47:44.972Z,7.65
2022-08-28T10:50:24.865Z,5.20
2022-08-28T10:52:58.422Z,7.53
2022-08-28T10:55:34.559Z,5.18
2022-08-28T10:58:24.523Z,5.82
2022-08-28T11:01:06.168Z,5.60
2022-08-28T11:03:41.088Z,6.43
2022-08-28T11:06:26.838Z,5.97
2022-08-28T11:08:57.332Z,6.00
2022-08-28T11:11:45.022Z,6.43
2022-08-28T11:14:24.315Z,5.90
2022-08-28T11:16:53.037Z,5.60
2022-08-28T11:19:52.399Z,5.97
2022-08-28T11:22:27.982Z,5.60
2022-08-28T11:25:09.389Z,5.75
2022-08-28T11:27:38.644Z,5.78
2022-08-28T11:30:11.398Z,5.25
2022-08-28T11:32:52.396Z,5.82
2022-08-28T11:35:30.786Z,5.72
2022-08-28T11:37:58.317Z,5.53
2022-08-28T11:40:31.908Z,5.10
2022-08-28T11:43:20.755Z,5.05
2022-08-28T11:45:47.767Z,5.28
2022-08-28T11:48:45.005Z,5.40
2022-08-28T11:51:17.679Z,5.50
2022-08-28T11:54:09.263Z,5.68
2022-08-28T11:56:48.211Z,5.35
2022-08-28T11:59:34.972Z,5.10
2022-08-28T12:02:39.417Z,5.70
2022-08-28T12:05:31.242Z,5.55
2022-08-28T12:08:00.626Z,5.10
2022-08-28T12:10:30.777Z,5.30
2022-08-28T12:13:07.411Z,5.60
2022-08-28T12:18:11.211Z,5.88
2022-08-28T12:20:46.589Z,5.43
2022-08-28T12:23:43.086Z,5.80
2022-08-28T12:26:41.815Z,5.55
2022-08-28T12:29:37.551Z,5.57
2022-08-28T12:32:28.965Z,5.93
2022-08-28T12:34:58.319Z,5.65
2022-08-28T12:37:27.856Z,5.75
2022-08-28T12:39:57.933Z,5.47
2022-08-28T12:42:32.128Z,5.65
2022-08-28T12:45:05.874Z,5.28
2022-08-28T12:47:34.573Z,5.30
2022-08-28T12:50:21.575Z,5.43
2022-08-28T12:52:51.420Z,5.43
2022-08-28T12:55:24.199Z,5.57
2022-08-28T12:57:51.228Z,5.07
2022-08-28T13:00:23.788Z,5.32
2022-08-28T13:02:53.482Z,5.00
2022-08-28T13:05:36.586Z,5.05
2022-08-28T13:08:06.870Z,4.93
2022-08-28T13:10:40.358Z,5.03
2022-08-28T13:13:45.170Z,4.75
2022-08-28T13:16:14.036Z,4.85
2022-08-28T13:18:50.254Z,4.55
2022-08-28T13:21:28.598Z,4.35
2022-08-28T13:24:22.167Z,4.68
2022-08-28T13:27:17.088Z,4.55
2022-08-28T13:30:00.897Z,4.10
2022-08-28T13:32:33.160Z,4.50
2022-08-28T13:35:18.064Z,4.07
2022-08-28T13:37:46.436Z,4.20
2022-08-28T13:40:38.143Z,5.18
2022-08-28T13:43:07.360Z,4.80
2022-08-28T13:45:43.156Z,5.13
2022-08-28T13:48:13.385Z,4.70
2022-08-28T13:50:43.913Z,5.00
2022-08-28T13:53:15.921Z,4.80
2022-08-28T13:55:42.583Z,4.53
2022-08-28T13:58:09.483Z,5.03
2022-08-28T14:03:23.318Z,4.90
2022-08-28T14:05:49.921Z,4.68
2022-08-28T14:08:16.553Z,5.05
2022-08-28T14:10:43.135Z,4.80
2022-08-28T14:13:09.810Z,5.32
2022-08-28T14:15:36.499Z,5.07
2022-08-28T14:18:03.151Z,5.20
2022-08-28T14:20:29.775Z,5.70
2022-08-28T14:22:56.440Z,6.20
2022-08-28T14:25:23.615Z,5.40
2022-08-28T14:27:50.586Z,5.32
2022-08-28T14:32:44.152Z,5.18
2022-08-28T14:35:11.443Z,5.00
2022-08-28T14:37:38.051Z,4.85
2022-08-28T14:40:06.454Z,5.40
2022-08-28T14:42:33.079Z,4.28
2022-08-28T14:44:59.734Z,4.85
2022-08-28T14:47:26.369Z,4.47
2022-08-28T14:49:53.118Z,4.70
2022-08-28T14:52:19.820Z,5.85
2022-08-28T14:54:46.630Z,5.80
2022-08-28T14:57:13.692Z,6.18
2022-08-28T15:02:08.042Z,5.55
2022-08-28T15:04:37.631Z,5.15
2022-08-28T15:07:08.059Z,5.30
2022-08-28T15:09:39.955Z,5.30
2022-08-28T15:12:07.128Z,5.45
2022-08-28T15:14:34.659Z,5.68
2022-08-28T15:17:01.872Z,6.30
2022-08-28T15:19:30.080Z,6.13
2022-08-28T15:21:58.016Z,6.10
2022-08-28T15:24:28.572Z,4.80
2022-08-28T15:26:55.291Z,5.80
2022-08-28T15:29:21.923Z,6.25
2022-08-28T15:31:50.330Z,6.75
2022-08-28T15:34:25.797Z,5.30
2022-08-28T15:36:55.246Z,5.82
2022-08-28T15:39:43.908Z,6.55
2022-08-28T15:42:11.547Z,6.32
2022-08-28T15:44:38.858Z,7.15
2022-08-28T15:47:06.201Z,8.70
2022-08-28T15:49:36.105Z,9.90
2022-08-28T15:52:05.602Z,8.07
2022-08-28T15:54:32.346Z,8.82
2022-08-28T15:56:59.017Z,8.55
2022-08-28T15:59:25.904Z,10.43
2022-08-28T16:02:13.079Z,9.45
2022-08-28T16:04:40.328Z,9.82
2022-08-28T16:07:07.282Z,9.60
2022-08-28T16:09:33.944Z,7.63
2022-08-28T16:12:00.500Z,7.22
2022-08-28T16:14:27.074Z,6.70
2022-08-28T16:16:53.783Z,6.68
2022-08-28T16:19:20.576Z,6.85
2022-08-28T16:21:47.169Z,6.70
2022-08-28T16:24:13.767Z,7.32
2022-08-28T16:26:40.386Z,7.40
2022-08-28T16:29:07.559Z,7.30
2022-08-28T16:34:03.013Z,7.28
2022-08-28T16:36:31.096Z,7.20
2022-08-28T16:39:00.386Z,6.95
2022-08-28T16:41:30.531Z,7.18
2022-08-28T16:43:58.692Z,6.78
2022-08-28T16:46:27.000Z,6.78
2022-08-28T16:48:55.279Z,7.13
2022-08-28T16:51:22.734Z,6.97
2022-08-28T16:53:49.384Z,6.80
2022-08-28T16:56:17.630Z,7.15
2022-08-28T16:58:45.075Z,7.25
2022-08-28T17:01:13.535Z,6.88
2022-08-28T17:03:41.822Z,7.18
2022-08-28T17:06:16.466Z,6.63
2022-08-28T17:08:44.173Z,6.60
2022-08-28T17:11:11.863Z,7.75
2022-08-28T17:13:39.594Z,7.57
2022-08-28T17:16:07.117Z,7.47
2022-08-28T17:18:34.520Z,7.30
2022-08-28T17:21:19.382Z,7.00
2022-08-28T17:23:46.681Z,6.88
2022-08-28T17:26:15.312Z,7.13
2022-08-28T17:28:43.692Z,7.13
2022-08-28T17:31:11.444Z,8.02
2022-08-28T17:33:39.895Z,7.38
2022-08-28T17:36:08.625Z,7.45
2022-08-28T17:38:37.251Z,7.32
2022-08-28T17:41:06.403Z,6.90
2022-08-28T17:43:34.374Z,6.97
2022-08-28T17:46:01.577Z,7.18
2022-08-28T17:50:55.099Z,7.45
2022-08-28T17:53:25.788Z,7.32
2022-08-28T17:55:54.544Z,7.13
2022-08-28T17:58:21.202Z,6.88
2022-08-28T18:00:47.884Z,7.45
2022-08-28T18:03:15.169Z,7.70
2022-08-28T18:05:41.851Z,7.07
2022-08-28T18:08:08.747Z,7.40
2022-08-28T18:10:35.896Z,7.53
2022-08-28T18:15:30.860Z,7.88
2022-08-28T18:17:58.260Z,7.45
2022-08-28T18:20:25.856Z,7.43
2022-08-28T18:22:53.592Z,7.40
2022-08-28T18:25:39.172Z,7.85
2022-08-28T18:28:06.457Z,7.40
2022-08-28T18:30:33.445Z,7.43
2022-08-28T18:33:00.737Z,7.72
2022-08-28T18:35:31.830Z,8.13
2022-08-28T18:38:00.349Z,7.80
2022-08-28T18:40:27.420Z,7.72
2022-08-28T18:42:55.014Z,8.00
2022-08-28T18:45:21.822Z,10.95
2022-08-28T18:47:48.616Z,10.48
2022-08-28T18:50:15.503Z,10.30
2022-08-28T18:52:42.377Z,7.70
2022-08-28T18:55:10.914Z,9.30
2022-08-28T18:57:37.579Z,8.07
2022-08-28T19:00:05.755Z,8.93
2022-08-28T19:02:32.525Z,8.63
2022-08-28T19:04:59.532Z,9.18
2022-08-28T19:07:27.463Z,8.88
2022-08-28T19:09:58.026Z,8.93
2022-08-28T19:12:26.115Z,8.55
2022-08-28T19:14:57.641Z,8.40
2022-08-28T19:17:26.410Z,8.55
2022-08-28T19:19:54.427Z,8.88
2022-08-28T19:22:22.110Z,8.73
2022-08-28T19:24:48.821Z,8.43
2022-08-28T19:27:15.688Z,8.50
2022-08-28T19:29:42.262Z,8.40
2022-08-28T19:32:08.983Z,9.10
2022-08-28T19:34:35.607Z,9.00
2022-08-28T19:37:02.659Z,8.18
2022-08-28T19:39:29.794Z,8.30
2022-08-28T19:41:56.374Z,9.10
2022-08-28T19:44:22.994Z,8.68
2022-08-28T19:46:49.904Z,9.00
2022-08-28T19:49:16.482Z,8.93
2022-08-28T19:51:43.207Z,9.23
2022-08-28T19:54:14.439Z,8.70
2022-08-28T19:56:41.980Z,9.10
2022-08-28T19:59:09.572Z,8.82
2022-08-28T20:01:39.959Z,8.93
2022-08-28T20:04:08.964Z,8.63
2022-08-28T20:06:36.694Z,8.57
2022-08-28T20:09:05.007Z,9.10
2022-08-28T20:11:33.394Z,9.07
2022-08-28T20:14:05.581Z,8.68
2022-08-28T20:16:35.980Z,9.20
2022-08-28T20:19:04.071Z,9.05
2022-08-28T20:21:38.009Z,9.18
2022-08-28T20:24:11.596Z,8.88
2022-08-28T20:26:38.382Z,9.05
2022-08-28T20:29:07.374Z,8.43
2022-08-28T20:31:35.191Z,8.65
2022-08-28T20:34:01.807Z,9.02
2022-08-28T20:36:28.664Z,8.65
2022-08-28T20:38:55.299Z,8.90
2022-08-28T20:41:22.673Z,8.70
2022-08-28T20:46:17.169Z,8.45
2022-08-28T20:48:44.436Z,8.80
2022-08-28T20:51:11.151Z,8.57
2022-08-28T20:53:38.579Z,8.70
2022-08-28T20:56:08.726Z,8.90
2022-08-28T20:58:36.010Z,8.60
2022-08-28T21:03:29.288Z,8.80
2022-08-28T21:05:56.486Z,9.50
2022-08-28T21:08:23.053Z,8.73
2022-08-28T21:10:51.710Z,9.27
2022-08-28T21:13:18.305Z,9.30
2022-08-28T21:15:44.864Z,8.60
2022-08-28T21:18:12.223Z,9.45
2022-08-28T21:20:40.047Z,8.93
2022-08-28T21:25:33.736Z,9.32
2022-08-28T21:28:04.284Z,9.20
2022-08-28T21:30:31.435Z,9.07
2022-08-28T21:32:59.318Z,9.07
2022-08-28T21:35:25.907Z,8.43
2022-08-28T21:37:52.545Z,8.65
2022-08-28T21:40:19.654Z,9.38
2022-08-28T21:42:46.668Z,9.75
2022-08-28T21:45:13.636Z,8.98
2022-08-28T21:47:41.740Z,10.23
2022-08-28T21:50:10.740Z,10.45
2022-08-28T21:52:37.669Z,9.95
2022-08-28T21:55:11.354Z,10.00
2022-08-28T21:57:38.237Z,9.55
2022-08-28T22:00:11.863Z,9.68
2022-08-28T22:02:38.889Z,9.60
2022-08-28T22:05:05.907Z,9.00
2022-08-28T22:07:32.493Z,9.38
2022-08-28T22:09:59.088Z,10.02
2022-08-28T22:12:25.733Z,9.52
2022-08-28T22:14:52.476Z,9.75
2022-08-28T22:17:19.087Z,10.07
2022-08-28T22:19:46.664Z,9.35
2022-08-28T22:22:32.353Z,9.70
2022-08-28T22:24:59.087Z,9.90
2022-08-28T22:27:25.737Z,10.07
2022-08-28T22:29:52.338Z,9.60
2022-08-28T22:32:22.812Z,9.70
2022-08-28T22:34:49.678Z,9.88
2022-08-28T22:37:16.483Z,9.60
2022-08-28T22:39:43.383Z,9.93
2022-08-28T22:42:10.035Z,8.93
2022-08-28T22:44:37.636Z,9.13
2022-08-28T22:47:04.464Z,9.55
2022-08-28T22:49:31.160Z,10.23
2022-08-28T22:51:57.748Z,9.98
2022-08-28T22:54:24.370Z,10.77
2022-08-28T22:56:50.998Z,10.40
2022-08-28T22:59:18.153Z,9.73
2022-08-28T23:01:44.794Z,10.20
2022-08-28T23:04:12.029Z,10.00
2022-08-28T23:09:07.770Z,9.82
2022-08-28T23:11:37.682Z,9.82
2022-08-28T23:14:05.570Z,9.55
2022-08-28T23:16:32.490Z,8.80
2022-08-28T23:19:13.032Z,9.40
2022-08-28T23:21:43.878Z,9.30
2022-08-28T23:24:12.723Z,9.65
2022-08-28T23:26:39.548Z,9.18
2022-08-28T23:29:06.163Z,9.32
2022-08-28T23:31:32.815Z,9.95
2022-08-28T23:33:59.690Z,9.80
2022-08-28T23:36:26.418Z,9.82
2022-08-28T23:38:53.124Z,11.00
2022-08-28T23:41:19.857Z,9.93
2022-08-28T23:43:47.562Z,9.25
2022-08-28T23:46:19.653Z,9.68
2022-08-28T23:48:49.694Z,9.70
2022-08-28T23:51:17.361Z,9.77
2022-08-28T23:53:45.165Z,9.63
2022-08-28T23:56:12.902Z,9.57
2022-08-28T23:58:40.302Z,9.30
